sensor_id;sensor_type;location;lat;lon;timestamp;pressure;altitude;pressure_sealevel;temperature;humidity
64668;BME280;51077;42.716;23.344;2023-05-14T00:01:11;95803.56;;;15.94;45.57
64668;BME280;51077;42.716;23.344;2023-05-14T00:03:36;95810.34;;;15.93;45.69
64668;BME280;51077;42.716;23.344;2023-05-14T00:06:04;95806.84;;;15.92;45.57
64668;BME280;51077;42.716;23.344;2023-05-14T00:08:29;95801.28;;;15.92;45.50
64668;BME280;51077;42.716;23.344;2023-05-14T00:10:54;95797.25;;;15.93;45.61
64668;BME280;51077;42.716;23.344;2023-05-14T00:13:20;95799.06;;;15.91;45.57
64668;BME280;51077;42.716;23.344;2023-05-14T00:15:45;95791.50;;;15.91;45.56
64668;BME280;51077;42.716;23.344;2023-05-14T00:18:10;95787.25;;;15.90;45.46
64668;BME280;51077;42.716;23.344;2023-05-14T00:20:36;95781.72;;;15.90;45.46
64668;BME280;51077;42.716;23.344;2023-05-14T00:23:02;95792.06;;;15.90;45.42
64668;BME280;51077;42.716;23.344;2023-05-14T00:25:27;95788.53;;;15.89;45.42
64668;BME280;51077;42.716;23.344;2023-05-14T00:27:52;95777.06;;;15.85;45.42
64668;BME280;51077;42.716;23.344;2023-05-14T00:30:18;95777.06;;;15.85;45.57
64668;BME280;51077;42.716;23.344;2023-05-14T00:32:43;95776.28;;;15.84;45.33
64668;BME280;51077;42.716;23.344;2023-05-14T00:35:09;95775.53;;;15.84;45.39
64668;BME280;51077;42.716;23.344;2023-05-14T00:37:34;95769.25;;;15.83;45.39
64668;BME280;51077;42.716;23.344;2023-05-14T00:40:00;95766.31;;;15.81;45.36
64668;BME280;51077;42.716;23.344;2023-05-14T00:42:26;95771.84;;;15.81;45.41
64668;BME280;51077;42.716;23.344;2023-05-14T00:44:51;95766.81;;;15.80;45.42
64668;BME280;51077;42.716;23.344;2023-05-14T00:47:17;95759.81;;;15.79;45.44
64668;BME280;51077;42.716;23.344;2023-05-14T00:49:44;95760.53;;;15.79;45.32
64668;BME280;51077;42.716;23.344;2023-05-14T00:52:10;95771.63;;;15.79;45.22
64668;BME280;51077;42.716;23.344;2023-05-14T00:54:36;95773.44;;;15.77;45.24
64668;BME280;51077;42.716;23.344;2023-05-14T00:57:02;95756.59;;;15.75;45.19
64668;BME280;51077;42.716;23.344;2023-05-14T00:59:27;95760.47;;;15.72;45.19
64668;BME280;51077;42.716;23.344;2023-05-14T01:01:53;95751.19;;;15.69;45.15
64668;BME280;51077;42.716;23.344;2023-05-14T01:04:18;95748.22;;;15.67;44.98
64668;BME280;51077;42.716;23.344;2023-05-14T01:06:57;95752.81;;;15.65;44.84
64668;BME280;51077;42.716;23.344;2023-05-14T01:09:34;95764.91;;;15.62;44.60
64668;BME280;51077;42.716;23.344;2023-05-14T01:17:27;95748.97;;;15.54;44.43
64668;BME280;51077;42.716;23.344;2023-05-14T01:19:54;95748.72;;;15.52;44.20
64668;BME280;51077;42.716;23.344;2023-05-14T01:22:20;95746.94;;;15.55;44.17
64668;BME280;51077;42.716;23.344;2023-05-14T01:24:46;95757.47;;;15.56;44.09
64668;BME280;51077;42.716;23.344;2023-05-14T01:27:24;95771.09;;;15.54;44.07
64668;BME280;51077;42.716;23.344;2023-05-14T01:30:02;95780.13;;;15.55;44.11
64668;BME280;51077;42.716;23.344;2023-05-14T01:32:32;95779.16;;;15.52;43.85
64668;BME280;51077;42.716;23.344;2023-05-14T01:34:59;95788.75;;;15.51;43.91
64668;BME280;51077;42.716;23.344;2023-05-14T01:37:26;95780.44;;;15.51;43.57
64668;BME280;51077;42.716;23.344;2023-05-14T01:39:53;95781.94;;;15.52;43.90
64668;BME280;51077;42.716;23.344;2023-05-14T01:42:20;95767.91;;;15.50;43.74
64668;BME280;51077;42.716;23.344;2023-05-14T01:44:46;95772.16;;;15.51;43.86
64668;BME280;51077;42.716;23.344;2023-05-14T01:47:11;95773.44;;;15.50;43.58
64668;BME280;51077;42.716;23.344;2023-05-14T01:49:37;95771.41;;;15.51;43.66
64668;BME280;51077;42.716;23.344;2023-05-14T01:52:02;95773.44;;;15.50;43.62
64668;BME280;51077;42.716;23.344;2023-05-14T01:54:28;95775.97;;;15.48;43.61
64668;BME280;51077;42.716;23.344;2023-05-14T01:56:53;95770.75;;;15.45;43.48
64668;BME280;51077;42.716;23.344;2023-05-14T01:59:19;95783.34;;;15.46;43.43
64668;BME280;51077;42.716;23.344;2023-05-14T02:01:44;95783.84;;;15.44;43.36
64668;BME280;51077;42.716;23.344;2023-05-14T02:04:10;95783.66;;;15.42;43.43
64668;BME280;51077;42.716;23.344;2023-05-14T02:06:35;95775.34;;;15.42;43.41
64668;BME280;51077;42.716;23.344;2023-05-14T02:09:01;95772.56;;;15.42;43.34
64668;BME280;51077;42.716;23.344;2023-05-14T02:11:26;95778.09;;;15.42;43.53
64668;BME280;51077;42.716;23.344;2023-05-14T02:13:52;95782.91;;;15.42;43.56
64668;BME280;51077;42.716;23.344;2023-05-14T02:16:17;95781.38;;;15.41;43.61
64668;BME280;51077;42.716;23.344;2023-05-14T02:18:43;95779.16;;;15.39;43.56
64668;BME280;51077;42.716;23.344;2023-05-14T02:21:08;95783.97;;;15.39;43.80
64668;BME280;51077;42.716;23.344;2023-05-14T02:23:34;95789.50;;;15.39;44.03
64668;BME280;51077;42.716;23.344;2023-05-14T02:25:59;95788.75;;;15.38;43.92
64668;BME280;51077;42.716;23.344;2023-05-14T02:28:24;95788.00;;;15.38;44.05
64668;BME280;51077;42.716;23.344;2023-05-14T02:30:50;95785.75;;;15.36;44.12
64668;BME280;51077;42.716;23.344;2023-05-14T02:33:15;95787.03;;;15.35;44.09
64668;BME280;51077;42.716;23.344;2023-05-14T02:35:41;95793.84;;;15.34;44.46
64668;BME280;51077;42.716;23.344;2023-05-14T02:38:06;95797.66;;;15.31;44.46
64668;BME280;51077;42.716;23.344;2023-05-14T02:40:31;95804.25;;;15.28;44.74
64668;BME280;51077;42.716;23.344;2023-05-14T02:42:57;95809.56;;;15.26;44.96
64668;BME280;51077;42.716;23.344;2023-05-14T02:45:22;95806.59;;;15.24;44.86
64668;BME280;51077;42.716;23.344;2023-05-14T02:47:48;95809.88;;;15.22;44.94
64668;BME280;51077;42.716;23.344;2023-05-14T02:50:13;95810.94;;;15.19;44.97
64668;BME280;51077;42.716;23.344;2023-05-14T02:52:39;95801.91;;;15.19;45.00
64668;BME280;51077;42.716;23.344;2023-05-14T02:55:04;95806.69;;;15.18;45.05
64668;BME280;51077;42.716;23.344;2023-05-14T02:57:30;95794.88;;;15.18;45.18
64668;BME280;51077;42.716;23.344;2023-05-14T02:59:55;95803.19;;;15.18;45.22
64668;BME280;51077;42.716;23.344;2023-05-14T03:02:21;95805.94;;;15.18;45.45
64668;BME280;51077;42.716;23.344;2023-05-14T03:04:46;95814.97;;;15.18;45.14
64668;BME280;51077;42.716;23.344;2023-05-14T03:07:12;95804.47;;;15.17;45.25
64668;BME280;51077;42.716;23.344;2023-05-14T03:09:37;95817.00;;;15.18;45.20
64668;BME280;51077;42.716;23.344;2023-05-14T03:12:03;95809.25;;;15.16;45.26
64668;BME280;51077;42.716;23.344;2023-05-14T03:14:28;95806.47;;;15.16;45.32
64668;BME280;51077;42.716;23.344;2023-05-14T03:16:54;95793.16;;;15.15;45.34
64668;BME280;51077;42.716;23.344;2023-05-14T03:19:19;95781.38;;;15.14;45.30
64668;BME280;51077;42.716;23.344;2023-05-14T03:21:45;95784.13;;;15.14;45.27
64668;BME280;51077;42.716;23.344;2023-05-14T03:24:10;95784.88;;;15.15;45.30
64668;BME280;51077;42.716;23.344;2023-05-14T03:26:35;95802.00;;;15.13;45.34
64668;BME280;51077;42.716;23.344;2023-05-14T03:29:01;95798.50;;;15.13;45.45
64668;BME280;51077;42.716;23.344;2023-05-14T03:31:28;95804.03;;;15.13;45.48
64668;BME280;51077;42.716;23.344;2023-05-14T03:33:53;95811.59;;;15.12;45.11
64668;BME280;51077;42.716;23.344;2023-05-14T03:36:19;95807.53;;;15.13;45.32
64668;BME280;51077;42.716;23.344;2023-05-14T03:38:44;95808.28;;;15.14;45.40
64668;BME280;51077;42.716;23.344;2023-05-14T03:41:09;95809.56;;;15.13;45.42
64668;BME280;51077;42.716;23.344;2023-05-14T03:43:35;95807.53;;;15.13;45.43
64668;BME280;51077;42.716;23.344;2023-05-14T03:46:00;95801.25;;;15.13;45.62
64668;BME280;51077;42.716;23.344;2023-05-14T03:48:26;95801.03;;;15.11;45.64
64668;BME280;51077;42.716;23.344;2023-05-14T03:50:51;95811.34;;;15.10;45.67
64668;BME280;51077;42.716;23.344;2023-05-14T03:53:17;95803.81;;;15.11;45.91
64668;BME280;51077;42.716;23.344;2023-05-14T03:55:42;95813.59;;;15.12;45.94
64668;BME280;51077;42.716;23.344;2023-05-14T03:58:07;95818.91;;;15.09;46.02
64668;BME280;51077;42.716;23.344;2023-05-14T04:00:38;95814.84;;;15.11;46.28
64668;BME280;51077;42.716;23.344;2023-05-14T04:03:03;95816.13;;;15.09;46.43
64668;BME280;51077;42.716;23.344;2023-05-14T04:05:29;95811.16;;;15.08;47.02
64668;BME280;51077;42.716;23.344;2023-05-14T04:07:54;95806.16;;;15.06;47.02
64668;BME280;51077;42.716;23.344;2023-05-14T04:10:19;95810.19;;;15.05;47.36
64668;BME280;51077;42.716;23.344;2023-05-14T04:12:45;95816.44;;;15.06;47.18
64668;BME280;51077;42.716;23.344;2023-05-14T04:15:10;95826.25;;;15.07;47.29
64668;BME280;51077;42.716;23.344;2023-05-14T04:17:36;95823.50;;;15.07;47.18
64668;BME280;51077;42.716;23.344;2023-05-14T04:20:01;95818.91;;;15.09;47.48
64668;BME280;51077;42.716;23.344;2023-05-14T04:22:26;95819.97;;;15.06;47.64
64668;BME280;51077;42.716;23.344;2023-05-14T04:24:52;95828.47;;;15.08;47.76
64668;BME280;51077;42.716;23.344;2023-05-14T04:27:20;95815.94;;;15.07;47.54
64668;BME280;51077;42.716;23.344;2023-05-14T04:29:46;95826.25;;;15.07;47.79
64668;BME280;51077;42.716;23.344;2023-05-14T04:32:12;95829.75;;;15.07;47.88
64668;BME280;51077;42.716;23.344;2023-05-14T04:34:37;95835.06;;;15.05;48.01
64668;BME280;51077;42.716;23.344;2023-05-14T04:37:03;95836.34;;;15.04;47.96
64668;BME280;51077;42.716;23.344;2023-05-14T04:39:28;95843.34;;;15.05;47.99
64668;BME280;51077;42.716;23.344;2023-05-14T04:41:53;95853.16;;;15.06;48.06
64668;BME280;51077;42.716;23.344;2023-05-14T04:44:19;95850.38;;;15.06;48.15
64668;BME280;51077;42.716;23.344;2023-05-14T04:46:44;95851.13;;;15.07;47.98
64668;BME280;51077;42.716;23.344;2023-05-14T04:49:10;95854.63;;;15.07;48.19
64668;BME280;51077;42.716;23.344;2023-05-14T04:51:35;95858.69;;;15.06;48.19
64668;BME280;51077;42.716;23.344;2023-05-14T04:54:01;95862.94;;;15.07;48.38
64668;BME280;51077;42.716;23.344;2023-05-14T04:56:26;95866.22;;;15.06;48.30
64668;BME280;51077;42.716;23.344;2023-05-14T04:58:52;95874.00;;;15.07;48.41
64668;BME280;51077;42.716;23.344;2023-05-14T05:01:17;95880.56;;;15.04;48.63
64668;BME280;51077;42.716;23.344;2023-05-14T05:03:42;95882.38;;;15.02;48.76
64668;BME280;51077;42.716;23.344;2023-05-14T05:06:08;95893.19;;;15.00;48.85
64668;BME280;51077;42.716;23.344;2023-05-14T05:08:33;95896.06;;;14.94;49.09
64668;BME280;51077;42.716;23.344;2023-05-14T05:10:59;95904.13;;;14.92;49.31
64668;BME280;51077;42.716;23.344;2023-05-14T05:13:24;95897.41;;;14.88;49.50
64668;BME280;51077;42.716;23.344;2023-05-14T05:15:49;95912.78;;;14.83;49.85
64668;BME280;51077;42.716;23.344;2023-05-14T05:18:15;95919.38;;;14.80;49.76
64668;BME280;51077;42.716;23.344;2023-05-14T05:20:40;95920.94;;;14.75;50.12
64668;BME280;51077;42.716;23.344;2023-05-14T05:23:06;95922.50;;;14.71;50.20
64668;BME280;51077;42.716;23.344;2023-05-14T05:25:31;95929.09;;;14.68;50.45
64668;BME280;51077;42.716;23.344;2023-05-14T05:27:56;95932.16;;;14.64;50.67
64668;BME280;51077;42.716;23.344;2023-05-14T05:30:22;95930.97;;;14.60;50.73
64668;BME280;51077;42.716;23.344;2023-05-14T05:32:47;95933.50;;;14.57;51.16
64668;BME280;51077;42.716;23.344;2023-05-14T05:35:13;95941.84;;;14.52;51.51
64668;BME280;51077;42.716;23.344;2023-05-14T05:37:38;95943.38;;;14.47;51.66
64668;BME280;51077;42.716;23.344;2023-05-14T05:40:04;95938.91;;;14.44;51.89
64668;BME280;51077;42.716;23.344;2023-05-14T05:42:30;95946.97;;;14.42;51.86
64668;BME280;51077;42.716;23.344;2023-05-14T05:44:55;95945.03;;;14.37;52.67
64668;BME280;51077;42.716;23.344;2023-05-14T05:47:21;95943.06;;;14.32;52.96
64668;BME280;51077;42.716;23.344;2023-05-14T05:49:46;95945.91;;;14.26;53.45
64668;BME280;51077;42.716;23.344;2023-05-14T05:52:12;95945.44;;;14.22;53.76
64668;BME280;51077;42.716;23.344;2023-05-14T05:54:37;95949.25;;;14.19;53.68
64668;BME280;51077;42.716;23.344;2023-05-14T05:57:04;95945.28;;;14.15;54.19
64668;BME280;51077;42.716;23.344;2023-05-14T05:59:29;95938.25;;;14.14;54.53
64668;BME280;51077;42.716;23.344;2023-05-14T06:01:55;95930.06;;;14.08;54.77
64668;BME280;51077;42.716;23.344;2023-05-14T06:04:20;95935.31;;;14.06;55.08
64668;BME280;51077;42.716;23.344;2023-05-14T06:06:46;95939.16;;;14.03;55.50
64668;BME280;51077;42.716;23.344;2023-05-14T06:09:11;95934.91;;;14.02;55.90
64668;BME280;51077;42.716;23.344;2023-05-14T06:11:37;95939.44;;;13.99;55.91
64668;BME280;51077;42.716;23.344;2023-05-14T06:14:02;95943.22;;;13.96;56.29
64668;BME280;51077;42.716;23.344;2023-05-14T06:16:28;95937.47;;;13.94;56.44
64668;BME280;51077;42.716;23.344;2023-05-14T06:18:54;95946.50;;;13.95;57.75
64668;BME280;51077;42.716;23.344;2023-05-14T06:21:20;95947.03;;;13.93;57.66
64668;BME280;51077;42.716;23.344;2023-05-14T06:23:45;95940.00;;;13.92;57.79
64668;BME280;51077;42.716;23.344;2023-05-14T06:26:11;95933.00;;;13.91;58.03
64668;BME280;51077;42.716;23.344;2023-05-14T06:28:36;95930.22;;;13.91;58.18
64668;BME280;51077;42.716;23.344;2023-05-14T06:31:02;95935.75;;;13.91;58.12
64668;BME280;51077;42.716;23.344;2023-05-14T06:33:27;95938.50;;;13.91;58.26
64668;BME280;51077;42.716;23.344;2023-05-14T06:35:58;95941.50;;;13.93;58.39
64668;BME280;51077;42.716;23.344;2023-05-14T06:38:23;95945.50;;;13.92;58.32
64668;BME280;51077;42.716;23.344;2023-05-14T06:40:49;95934.47;;;13.92;58.58
64668;BME280;51077;42.716;23.344;2023-05-14T06:43:14;95935.22;;;13.93;58.51
64668;BME280;51077;42.716;23.344;2023-05-14T06:45:40;95938.50;;;13.91;58.88
64668;BME280;51077;42.716;23.344;2023-05-14T06:48:05;95931.50;;;13.90;59.22
64668;BME280;51077;42.716;23.344;2023-05-14T06:50:30;95924.25;;;13.87;59.34
64668;BME280;51077;42.716;23.344;2023-05-14T06:52:56;95927.25;;;13.89;59.34
64668;BME280;51077;42.716;23.344;2023-05-14T06:55:21;95928.00;;;13.90;59.16
64668;BME280;51077;42.716;23.344;2023-05-14T06:57:47;95925.97;;;13.90;59.58
64668;BME280;51077;42.716;23.344;2023-05-14T07:00:13;95901.88;;;13.91;59.74
64668;BME280;51077;42.716;23.344;2023-05-14T07:02:38;95906.88;;;13.92;59.71
64668;BME280;51077;42.716;23.344;2023-05-14T07:05:04;95915.41;;;13.94;60.08
64668;BME280;51077;42.716;23.344;2023-05-14T07:07:30;95919.88;;;13.97;59.94
64668;BME280;51077;42.716;23.344;2023-05-14T07:09:55;95930.63;;;14.01;60.05
64668;BME280;51077;42.716;23.344;2023-05-14T07:12:20;95923.31;;;14.03;59.93
64668;BME280;51077;42.716;23.344;2023-05-14T07:14:46;95918.03;;;14.05;59.96
64668;BME280;51077;42.716;23.344;2023-05-14T07:17:11;95930.56;;;14.06;59.97
64668;BME280;51077;42.716;23.344;2023-05-14T07:19:36;95952.13;;;14.08;60.11
64668;BME280;51077;42.716;23.344;2023-05-14T07:22:02;95959.41;;;14.05;60.10
64668;BME280;51077;42.716;23.344;2023-05-14T07:24:27;95966.00;;;14.02;60.36
64668;BME280;51077;42.716;23.344;2023-05-14T07:26:53;95960.97;;;14.01;60.25
64668;BME280;51077;42.716;23.344;2023-05-14T07:29:19;95944.94;;;13.99;60.41
64668;BME280;51077;42.716;23.344;2023-05-14T07:31:44;95947.25;;;13.95;60.61
64668;BME280;51077;42.716;23.344;2023-05-14T07:34:10;95951.03;;;13.92;60.66
64668;BME280;51077;42.716;23.344;2023-05-14T07:36:36;95942.28;;;13.88;60.89
64668;BME280;51077;42.716;23.344;2023-05-14T07:39:02;95940.59;;;13.85;60.79
64668;BME280;51077;42.716;23.344;2023-05-14T07:41:27;95942.59;;;13.85;60.78
64668;BME280;51077;42.716;23.344;2023-05-14T07:43:53;95945.13;;;13.82;61.05
64668;BME280;51077;42.716;23.344;2023-05-14T07:46:18;95950.09;;;13.84;61.01
64668;BME280;51077;42.716;23.344;2023-05-14T07:48:43;95953.84;;;13.87;61.20
64668;BME280;51077;42.716;23.344;2023-05-14T07:51:09;95958.84;;;13.88;61.00
64668;BME280;51077;42.716;23.344;2023-05-14T07:53:34;95948.81;;;13.91;61.13
64668;BME280;51077;42.716;23.344;2023-05-14T07:56:00;95954.25;;;13.96;61.06
64668;BME280;51077;42.716;23.344;2023-05-14T07:58:25;95960.16;;;14.06;62.99
64668;BME280;51077;42.716;23.344;2023-05-14T08:00:52;95953.34;;;14.13;63.82
64668;BME280;51077;42.716;23.344;2023-05-14T08:03:17;95958.28;;;14.20;63.13
64668;BME280;51077;42.716;23.344;2023-05-14T08:05:43;95957.97;;;14.23;62.72
64668;BME280;51077;42.716;23.344;2023-05-14T08:08:09;95965.97;;;14.27;62.49
64668;BME280;51077;42.716;23.344;2023-05-14T08:10:35;95967.47;;;14.28;62.14
64668;BME280;51077;42.716;23.344;2023-05-14T08:13:00;95964.19;;;14.29;61.97
64668;BME280;51077;42.716;23.344;2023-05-14T08:15:26;95962.91;;;14.30;61.83
64668;BME280;51077;42.716;23.344;2023-05-14T08:17:51;95953.38;;;14.31;61.66
64668;BME280;51077;42.716;23.344;2023-05-14T08:20:16;95959.13;;;14.33;61.59
64668;BME280;51077;42.716;23.344;2023-05-14T08:22:42;95945.03;;;14.37;61.41
64668;BME280;51077;42.716;23.344;2023-05-14T08:25:08;95937.50;;;14.38;61.26
64668;BME280;51077;42.716;23.344;2023-05-14T08:27:33;95932.19;;;14.40;60.89
64668;BME280;51077;42.716;23.344;2023-05-14T08:29:59;95930.41;;;14.42;60.90
64668;BME280;51077;42.716;23.344;2023-05-14T08:32:25;95931.16;;;14.43;60.81
64668;BME280;51077;42.716;23.344;2023-05-14T08:34:50;95932.91;;;14.40;60.78
64668;BME280;51077;42.716;23.344;2023-05-14T08:37:16;95928.91;;;14.41;60.76
64668;BME280;51077;42.716;23.344;2023-05-14T08:39:42;95933.16;;;14.42;60.78
64668;BME280;51077;42.716;23.344;2023-05-14T08:42:10;95925.84;;;14.45;60.78
64668;BME280;51077;42.716;23.344;2023-05-14T08:44:59;95928.59;;;14.45;60.58
64668;BME280;51077;42.716;23.344;2023-05-14T08:47:26;95927.34;;;14.46;60.43
64668;BME280;51077;42.716;23.344;2023-05-14T08:50:11;95912.50;;;14.49;60.36
64668;BME280;51077;42.716;23.344;2023-05-14T08:52:36;95923.56;;;14.49;60.30
64668;BME280;51077;42.716;23.344;2023-05-14T08:55:03;95913.00;;;14.47;60.39
64668;BME280;51077;42.716;23.344;2023-05-14T08:57:31;95909.25;;;14.45;60.30
64668;BME280;51077;42.716;23.344;2023-05-14T08:59:57;95905.53;;;14.42;60.57
64668;BME280;51077;42.716;23.344;2023-05-14T09:02:24;95910.31;;;14.42;60.47
64668;BME280;51077;42.716;23.344;2023-05-14T09:04:55;95928.16;;;14.41;60.51
64668;BME280;51077;42.716;23.344;2023-05-14T09:07:21;95924.13;;;14.42;60.46
64668;BME280;51077;42.716;23.344;2023-05-14T09:09:46;95919.56;;;14.44;60.18
64668;BME280;51077;42.716;23.344;2023-05-14T09:12:12;95931.09;;;14.48;60.31
64668;BME280;51077;42.716;23.344;2023-05-14T09:14:37;95914.22;;;14.52;60.14
64668;BME280;51077;42.716;23.344;2023-05-14T09:17:03;95907.13;;;14.56;60.05
64668;BME280;51077;42.716;23.344;2023-05-14T09:19:28;95908.88;;;14.60;60.08
64668;BME280;51077;42.716;23.344;2023-05-14T09:21:56;95909.59;;;14.60;59.89
64668;BME280;51077;42.716;23.344;2023-05-14T09:24:24;95915.13;;;14.60;59.94
64668;BME280;51077;42.716;23.344;2023-05-14T09:26:51;95909.59;;;14.60;59.89
64668;BME280;51077;42.716;23.344;2023-05-14T09:29:17;95922.44;;;14.57;59.94
64668;BME280;51077;42.716;23.344;2023-05-14T09:31:42;95915.22;;;14.54;60.00
64668;BME280;51077;42.716;23.344;2023-05-14T09:34:08;95900.88;;;14.56;59.83
64668;BME280;51077;42.716;23.344;2023-05-14T09:36:34;95908.19;;;14.53;59.86
64668;BME280;51077;42.716;23.344;2023-05-14T09:38:59;95916.50;;;14.48;60.16
64668;BME280;51077;42.716;23.344;2023-05-14T09:41:27;95900.22;;;14.44;60.18
64668;BME280;51077;42.716;23.344;2023-05-14T09:43:52;95883.22;;;14.40;60.14
64668;BME280;51077;42.716;23.344;2023-05-14T09:46:18;95885.53;;;14.36;60.06
64668;BME280;51077;42.716;23.344;2023-05-14T09:48:44;95895.63;;;14.33;60.15
64668;BME280;51077;42.716;23.344;2023-05-14T09:51:10;95899.66;;;14.32;60.18
64668;BME280;51077;42.716;23.344;2023-05-14T09:53:36;95893.88;;;14.30;60.24
64668;BME280;51077;42.716;23.344;2023-05-14T09:56:01;95886.13;;;14.29;60.40
64668;BME280;51077;42.716;23.344;2023-05-14T09:58:27;95884.13;;;14.29;60.26
64668;BME280;51077;42.716;23.344;2023-05-14T10:00:53;95873.06;;;14.29;60.02
64668;BME280;51077;42.716;23.344;2023-05-14T10:03:24;95883.38;;;14.29;60.19
64668;BME280;51077;42.716;23.344;2023-05-14T10:05:49;95862.31;;;14.26;60.30
64668;BME280;51077;42.716;23.344;2023-05-14T10:08:26;95866.81;;;14.29;62.19
64668;BME280;51077;42.716;23.344;2023-05-14T10:10:53;95862.03;;;14.29;61.97
64668;BME280;51077;42.716;23.344;2023-05-14T10:13:22;95866.06;;;14.28;62.30
64668;BME280;51077;42.716;23.344;2023-05-14T10:15:57;95858.28;;;14.27;61.62
64668;BME280;51077;42.716;23.344;2023-05-14T10:18:26;95852.84;;;14.21;61.65
64668;BME280;51077;42.716;23.344;2023-05-14T10:21:05;95849.09;;;14.19;61.55
64668;BME280;51077;42.716;23.344;2023-05-14T10:23:31;95843.91;;;14.15;61.67
64668;BME280;51077;42.716;23.344;2023-05-14T10:25:58;95836.41;;;14.10;61.67
64668;BME280;51077;42.716;23.344;2023-05-14T10:28:24;95836.19;;;14.08;61.53
64668;BME280;51077;42.716;23.344;2023-05-14T10:30:49;95864.09;;;14.04;61.81
64668;BME280;51077;42.716;23.344;2023-05-14T10:33:15;95869.16;;;14.00;61.66
64668;BME280;51077;42.716;23.344;2023-05-14T10:36:03;95864.25;;;13.93;61.86
64668;BME280;51077;42.716;23.344;2023-05-14T10:38:36;95865.03;;;13.88;61.83
64668;BME280;51077;42.716;23.344;2023-05-14T10:41:10;95872.84;;;13.84;61.88
64668;BME280;51077;42.716;23.344;2023-05-14T10:43:37;95851.59;;;13.79;62.25
64668;BME280;51077;42.716;23.344;2023-05-14T10:46:02;95852.66;;;13.76;62.28
64668;BME280;51077;42.716;23.344;2023-05-14T10:48:28;95849.44;;;13.72;62.27
64668;BME280;51077;42.716;23.344;2023-05-14T10:50:57;95836.88;;;13.71;62.60
64668;BME280;51077;42.716;23.344;2023-05-14T10:53:36;95854.94;;;13.72;62.53
64668;BME280;51077;42.716;23.344;2023-05-14T10:56:03;95839.63;;;13.71;62.73
64668;BME280;51077;42.716;23.344;2023-05-14T10:58:30;95841.16;;;13.72;62.51
64668;BME280;51077;42.716;23.344;2023-05-14T11:00:58;95854.69;;;13.70;62.77
64668;BME280;51077;42.716;23.344;2023-05-14T11:03:28;95828.84;;;13.73;62.87
64668;BME280;51077;42.716;23.344;2023-05-14T11:05:54;95842.41;;;13.71;62.73
64668;BME280;51077;42.716;23.344;2023-05-14T11:08:20;95839.13;;;13.72;62.73
64668;BME280;51077;42.716;23.344;2023-05-14T11:10:47;95826.09;;;13.73;62.96
64668;BME280;51077;42.716;23.344;2023-05-14T11:13:13;95839.13;;;13.72;62.83
64668;BME280;51077;42.716;23.344;2023-05-14T11:15:40;95844.66;;;13.72;62.98
64668;BME280;51077;42.716;23.344;2023-05-14T11:18:11;95852.41;;;13.74;62.89
64668;BME280;51077;42.716;23.344;2023-05-14T11:20:36;95852.66;;;13.76;63.06
64668;BME280;51077;42.716;23.344;2023-05-14T11:23:02;95841.81;;;13.78;62.91
64668;BME280;51077;42.716;23.344;2023-05-14T11:25:27;95842.28;;;13.82;62.97
64668;BME280;51077;42.716;23.344;2023-05-14T11:27:53;95837.22;;;13.86;62.71
64668;BME280;51077;42.716;23.344;2023-05-14T11:30:22;95844.22;;;13.87;62.81
64668;BME280;51077;42.716;23.344;2023-05-14T11:32:48;95830.88;;;13.91;62.54
64668;BME280;51077;42.716;23.344;2023-05-14T11:35:15;95833.34;;;13.95;62.50
64668;BME280;51077;42.716;23.344;2023-05-14T11:37:41;95835.81;;;13.98;62.50
64668;BME280;51077;42.716;23.344;2023-05-14T11:40:16;95824.78;;;13.98;62.44
64668;BME280;51077;42.716;23.344;2023-05-14T11:42:41;95826.81;;;13.98;62.73
64668;BME280;51077;42.716;23.344;2023-05-14T11:45:09;95827.25;;;14.02;62.57
64668;BME280;51077;42.716;23.344;2023-05-14T11:47:36;95826.19;;;14.05;62.43
64668;BME280;51077;42.716;23.344;2023-05-14T11:50:02;95811.88;;;14.06;62.37
64668;BME280;51077;42.716;23.344;2023-05-14T11:52:27;95817.09;;;14.10;62.19
64668;BME280;51077;42.716;23.344;2023-05-14T11:54:53;95819.06;;;14.15;62.22
64668;BME280;51077;42.716;23.344;2023-05-14T11:57:20;95821.94;;;14.23;62.10
64668;BME280;51077;42.716;23.344;2023-05-14T11:59:47;95805.63;;;14.25;62.05
64668;BME280;51077;42.716;23.344;2023-05-14T12:02:14;95799.47;;;14.32;61.87
64668;BME280;51077;42.716;23.344;2023-05-14T12:04:42;95805.88;;;14.40;61.74
64668;BME280;51077;42.716;23.344;2023-05-14T12:07:11;95803.81;;;14.46;61.54
64668;BME280;51077;42.716;23.344;2023-05-14T12:09:39;95811.81;;;14.50;61.45
64668;BME280;51077;42.716;23.344;2023-05-14T12:12:11;95806.94;;;14.56;61.26
64668;BME280;51077;42.716;23.344;2023-05-14T12:14:39;95782.75;;;14.62;61.09
64668;BME280;51077;42.716;23.344;2023-05-14T12:17:14;95782.88;;;14.70;60.91
64668;BME280;51077;42.716;23.344;2023-05-14T12:19:40;95763.97;;;14.74;60.94
64668;BME280;51077;42.716;23.344;2023-05-14T12:22:07;95770.13;;;14.80;60.70
64668;BME280;51077;42.716;23.344;2023-05-14T12:24:33;95757.72;;;14.87;60.51
64668;BME280;51077;42.716;23.344;2023-05-14T12:27:00;95746.13;;;14.88;60.54
64668;BME280;51077;42.716;23.344;2023-05-14T12:29:26;95739.78;;;14.93;60.23
64668;BME280;51077;42.716;23.344;2023-05-14T12:31:51;95735.00;;;14.94;60.06
64668;BME280;51077;42.716;23.344;2023-05-14T12:34:17;95744.56;;;14.93;59.96
64668;BME280;51077;42.716;23.344;2023-05-14T12:36:42;95742.31;;;14.91;60.05
64668;BME280;51077;42.716;23.344;2023-05-14T12:39:09;95751.47;;;14.86;60.05
64668;BME280;51077;42.716;23.344;2023-05-14T12:41:35;95736.66;;;14.83;60.02
64668;BME280;51077;42.716;23.344;2023-05-14T12:44:02;95733.91;;;14.83;60.09
64668;BME280;51077;42.716;23.344;2023-05-14T12:46:29;95739.22;;;14.81;60.12
64668;BME280;51077;42.716;23.344;2023-05-14T12:48:55;95743.78;;;14.79;60.21
64668;BME280;51077;42.716;23.344;2023-05-14T12:51:21;95737.81;;;14.75;60.21